Time;durP1;ratioP1;P1;durP2;ratioP2;P2;SDS_P1;SDS_P2;PMS_P1;PMS_P2;Temp;Humidity;BMP_temperature;BMP_pressure;BME280_temperature;BME280_humidity;BME280_pressure;Samples;Min_cycle;Max_cycle;Signal;HPM_P1;HPM_P2
2023/12/09 00:22:34;;;;;;;25.48;14.43;;;1.90;99.90;;;;;;5093846;28;20070;-72
2023/12/09 00:25:00;;;;;;;25.40;14.45;;;1.70;99.90;;;;;;5102721;28;20312;-72
2023/12/09 00:27:26;;;;;;;24.38;14.65;;;1.70;99.90;;;;;;5102673;28;20043;-70
2023/12/09 00:29:51;;;;;;;30.17;15.00;;;1.70;99.90;;;;;;5101424;28;20046;-71
2023/12/09 00:32:17;;;;;;;25.83;14.00;;;;;;;;;;5119653;28;20027;-71
2023/12/09 00:34:43;;;;;;;29.95;15.93;;;;;;;;;;5122830;28;20214;-71
2023/12/09 00:37:09;;;;;;;27.33;16.05;;;1.70;99.90;;;;;;5122885;28;20023;-71
2023/12/09 00:39:35;;;;;;;26.23;14.68;;;1.80;99.90;;;;;;5123021;28;20203;-71
2023/12/09 00:42:00;;;;;;;28.50;15.95;;;1.90;99.90;;;;;;5122769;28;20015;-71
2023/12/09 00:44:26;;;;;;;27.65;15.73;;;1.80;99.90;;;;;;5114302;27;20019;-71
2023/12/09 00:46:52;;;;;;;32.92;16.27;;;1.90;99.90;;;;;;5106138;28;20020;-71
2023/12/09 00:49:18;;;;;;;33.03;16.45;;;;;;;;;;5102964;28;20087;-72
2023/12/09 00:51:44;;;;;;;31.80;17.17;;;;;;;;;;5115668;28;20043;-71
2023/12/09 00:54:09;;;;;;;28.80;16.10;;;1.90;99.90;;;;;;5122388;28;20365;-71
2023/12/09 00:56:35;;;;;;;32.20;16.83;;;1.70;99.90;;;;;;5122566;28;20065;-71
2023/12/09 00:59:01;;;;;;;30.63;17.20;;;;;;;;;;5122437;28;20103;-71
2023/12/09 01:01:26;;;;;;;25.90;14.13;;;1.80;99.90;;;;;;5114416;28;20061;-71
2023/12/09 01:03:52;;;;;;;25.23;14.05;;;1.70;99.90;;;;;;5122534;28;20085;-71
2023/12/09 01:06:18;;;;;;;22.83;13.73;;;;;;;;;;5122547;28;20368;-71
2023/12/09 01:08:44;;;;;;;22.23;12.75;;;;;;;;;;5122313;28;20314;-70
2023/12/09 01:11:10;;;;;;;19.95;12.00;;;1.70;99.90;;;;;;5122477;28;20035;-70
2023/12/09 01:13:35;;;;;;;25.08;14.20;;;1.80;99.90;;;;;;5122195;28;20022;-71
2023/12/09 01:16:01;;;;;;;26.17;14.45;;;1.80;99.90;;;;;;5121443;28;20027;-70
2023/12/09 01:18:26;;;;;;;23.25;12.82;;;1.70;99.90;;;;;;5122157;28;20075;-71
2023/12/09 01:20:52;;;;;;;21.85;13.05;;;1.70;99.90;;;;;;5122346;28;20019;-71
2023/12/09 01:23:18;;;;;;;24.08;12.93;;;;;;;;;;5121878;28;20355;-71
2023/12/09 01:25:45;;;;;;;21.20;11.90;;;;;;;;;;5121974;28;20053;-71
2023/12/09 01:28:11;;;;;;;21.85;12.57;;;1.90;99.90;;;;;;5122118;28;20076;-72
2023/12/09 01:30:36;;;;;;;22.55;12.15;;;1.80;99.90;;;;;;5122077;28;20019;-71
2023/12/09 01:33:02;;;;;;;23.88;12.35;;;1.80;99.90;;;;;;5124471;27;20299;-72
2023/12/09 01:35:27;;;;;;;22.88;11.93;;;1.80;99.90;;;;;;5142322;27;20310;-71
2023/12/09 01:37:53;;;;;;;18.73;12.18;;;1.90;99.90;;;;;;5142296;27;20031;-70
2023/12/09 01:40:19;;;;;;;21.90;10.93;;;;;;;;;;5142409;27;20035;-71
2023/12/09 01:42:45;;;;;;;23.38;12.55;;;;;;;;;;5142217;27;20407;-70
2023/12/09 01:45:11;;;;;;;21.15;11.25;;;1.80;99.90;;;;;;5142292;27;20031;-70
2023/12/09 01:47:39;;;;;;;22.50;12.10;;;1.60;99.90;;;;;;5142246;27;20019;-71
2023/12/09 01:50:06;;;;;;;19.83;11.05;;;1.70;99.90;;;;;;5132557;27;20076;-71
2023/12/09 01:52:32;;;;;;;20.67;12.48;;;1.70;99.90;;;;;;5142351;27;20047;-70
2023/12/09 01:54:59;;;;;;;21.63;12.30;;;1.70;99.90;;;;;;5141997;27;20034;-71
2023/12/09 01:57:26;;;;;;;22.30;12.32;;;1.70;99.90;;;;;;5142098;27;20035;-70
2023/12/09 01:59:53;;;;;;;20.95;12.35;;;1.80;99.90;;;;;;5142152;27;20024;-71
2023/12/09 02:02:18;;;;;;;22.33;12.57;;;1.80;99.90;;;;;;5142253;27;20011;-71
2023/12/09 02:04:45;;;;;;;25.85;13.82;;;;;;;;;;5141980;27;20054;-71
2023/12/09 02:07:11;;;;;;;20.88;12.15;;;;;;;;;;5132934;28;20219;-71
2023/12/09 02:09:39;;;;;;;20.88;12.05;;;1.70;99.90;;;;;;5142240;28;20025;-71
2023/12/09 02:12:36;;;;;;;23.27;12.87;;;1.80;99.90;;;;;;5142182;27;20066;-69
2023/12/09 02:15:06;;;;;;;22.35;12.77;;;1.80;99.90;;;;;;5120285;27;20039;-69
2023/12/09 02:17:46;;;;;;;22.63;14.52;;;1.80;99.90;;;;;;5142033;27;20326;-72
2023/12/09 02:20:12;;;;;;;20.48;11.93;;;1.70;99.90;;;;;;5140772;28;20019;-71
2023/12/09 02:22:38;;;;;;;24.10;13.55;;;1.80;99.90;;;;;;5140637;28;20054;-72
2023/12/09 02:25:04;;;;;;;23.55;12.98;;;1.80;99.90;;;;;;5141846;27;20020;-72
2023/12/09 02:27:47;;;;;;;24.27;14.05;;;1.70;99.90;;;;;;5143293;27;20053;-71
2023/12/09 02:30:41;;;;;;;20.83;12.40;;;1.80;99.90;;;;;;5145981;27;20047;-71
2023/12/09 02:33:09;;;;;;;20.15;12.00;;;1.60;99.90;;;;;;5146033;27;20027;-70
2023/12/09 02:35:40;;;;;;;25.05;14.75;;;1.70;99.90;;;;;;5144699;27;20359;-70
2023/12/09 02:38:06;;;;;;;22.67;13.43;;;0.60;99.90;;;;;;5137907;27;20151;-70
2023/12/09 02:40:32;;;;;;;26.80;13.00;;;1.90;99.90;;;;;;5123032;28;20302;-70
2023/12/09 02:42:59;;;;;;;25.33;13.63;;;1.60;99.90;;;;;;5104811;28;20031;-70
2023/12/09 02:45:25;;;;;;;26.52;14.23;;;1.60;99.90;;;;;;5104769;28;20036;-70
2023/12/09 02:47:51;;;;;;;27.63;15.13;;;;;;;;;;5104695;28;20077;-70
2023/12/09 02:50:17;;;;;;;28.83;15.25;;;;;;;;;;5104538;28;20054;-70
2023/12/09 02:52:42;;;;;;;25.88;13.82;;;1.80;99.90;;;;;;5119960;28;20026;-70
2023/12/09 02:55:09;;;;;;;28.20;14.82;;;1.90;99.90;;;;;;5124752;28;20039;-71
2023/12/09 02:57:35;;;;;;;33.05;16.25;;;1.70;99.90;;;;;;5124857;28;20030;-71
2023/12/09 03:00:01;;;;;;;33.95;17.65;;;;;;;;;;5124760;28;20031;-71
2023/12/09 03:02:27;;;;;;;39.17;21.25;;;;;;;;;;5124798;28;20092;-71
2023/12/09 03:04:52;;;;;;;40.58;20.38;;;1.70;99.90;;;;;;5124859;28;20016;-70
2023/12/09 03:07:20;;;;;;;41.65;21.33;;;1.70;99.90;;;;;;5124853;28;20360;-70
2023/12/09 03:09:49;;;;;;;38.15;20.75;;;1.70;99.90;;;;;;5124666;28;20024;-70
2023/12/09 03:12:14;;;;;;;40.33;19.75;;;1.70;99.90;;;;;;5124586;28;20311;-70
2023/12/09 03:14:41;;;;;;;35.83;19.45;;;;;;;;;;5124640;28;20032;-70
2023/12/09 03:17:07;;;;;;;41.80;20.83;;;;;;;;;;5124381;28;20030;-70
2023/12/09 03:19:33;;;;;;;42.33;20.20;;;;;;;;;;5105568;28;20032;-70
2023/12/09 03:21:58;;;;;;;44.33;21.67;;;1.70;99.90;;;;;;5103832;28;20079;-70
2023/12/09 03:24:25;;;;;;;45.28;25.00;;;1.60;99.90;;;;;;5104059;28;20066;-69
2023/12/09 03:26:54;;;;;;;42.67;22.55;;;1.60;99.90;;;;;;5108022;27;20020;-71
2023/12/09 03:29:20;;;;;;;45.40;23.80;;;2.00;99.90;;;;;;5145035;27;20027;-70
2023/12/09 03:31:46;;;;;;;46.92;23.77;;;;;;;;;;5144980;27;20022;-70
2023/12/09 03:34:13;;;;;;;44.28;22.80;;;;;;;;;;5144474;27;20035;-71
2023/12/09 03:36:38;;;;;;;43.08;21.95;;;1.60;99.90;;;;;;5144873;27;20011;-69
2023/12/09 03:39:04;;;;;;;38.72;21.15;;;1.60;99.90;;;;;;5143640;27;20210;-71
2023/12/09 03:41:30;;;;;;;42.92;21.02;;;;;;;;;;5144619;27;20027;-69
2023/12/09 03:43:56;;;;;;;38.53;20.42;;;2.20;99.90;;;;;;5144674;27;20023;-70
2023/12/09 03:46:22;;;;;;;42.38;21.50;;;1.70;99.90;;;;;;5144411;27;20034;-71
2023/12/09 03:48:48;;;;;;;39.65;20.92;;;;;;;;;;5144557;27;20026;-70
2023/12/09 03:51:13;;;;;;;40.75;19.40;;;1.70;99.90;;;;;;5144604;27;20019;-70
2023/12/09 03:53:41;;;;;;;35.20;18.75;;;1.60;99.90;;;;;;5144286;27;20023;-71
2023/12/09 03:56:07;;;;;;;40.20;19.55;;;;;;;;;;5144581;27;20019;-71
2023/12/09 03:58:33;;;;;;;42.58;21.30;;;1.60;99.90;;;;;;5144246;27;20090;-71
2023/12/09 04:00:59;;;;;;;36.97;18.77;;;1.80;99.90;;;;;;5144184;27;20176;-71
2023/12/09 04:03:27;;;;;;;35.55;18.48;;;1.70;99.90;;;;;;5144093;27;20015;-71
2023/12/09 04:05:53;;;;;;;40.30;19.08;;;;;;;;;;5144232;27;20023;-71
2023/12/09 04:08:19;;;;;;;42.13;20.05;;;;;;;;;;5144082;27;20019;-71
2023/12/09 04:10:45;;;;;;;36.60;20.02;;;1.70;99.90;;;;;;5144047;27;20043;-69
2023/12/09 04:13:11;;;;;;;39.22;20.60;;;1.70;99.90;;;;;;5142770;27;20046;-69
2023/12/09 04:15:38;;;;;;;36.53;18.73;;;1.70;99.90;;;;;;5143919;27;20061;-68
2023/12/09 04:18:04;;;;;;;35.53;18.90;;;;;;;;;;5143922;27;20015;-69
2023/12/09 04:20:30;;;;;;;35.65;18.83;;;1.70;99.90;;;;;;5143830;27;20026;-70
2023/12/09 04:22:55;;;;;;;34.67;17.88;;;1.90;99.90;;;;;;5143609;27;20047;-70
2023/12/09 04:25:21;;;;;;;35.85;16.80;;;1.90;99.90;;;;;;5143812;27;20019;-70
2023/12/09 04:27:47;;;;;;;35.13;17.83;;;1.30;99.90;;;;;;5143696;27;20015;-70
2023/12/09 04:30:13;;;;;;;30.42;16.58;;;;;;;;;;5143855;27;20212;-70
2023/12/09 04:32:39;;;;;;;37.13;20.45;;;1.70;99.90;;;;;;5143553;27;20086;-71
2023/12/09 04:35:06;;;;;;;37.80;18.75;;;1.70;99.90;;;;;;5143499;27;20380;-71
2023/12/09 04:37:31;;;;;;;38.78;19.77;;;1.60;99.90;;;;;;5132058;27;20026;-70
2023/12/09 04:39:57;;;;;;;36.55;18.70;;;1.50;99.90;;;;;;5123132;28;20024;-71
2023/12/09 04:42:23;;;;;;;37.47;19.10;;;1.50;99.90;;;;;;5122907;28;20023;-71
2023/12/09 04:44:49;;;;;;;45.00;22.23;;;;;;;;;;5121715;28;20031;-70
2023/12/09 04:47:15;;;;;;;54.85;26.58;;;;;;;;;;5122720;28;20249;-69
2023/12/09 04:49:41;;;;;;;53.53;25.10;;;;;;;;;;5122757;28;20061;-69
2023/12/09 04:52:06;;;;;;;61.65;29.42;;;1.60;99.90;;;;;;5122755;28;20042;-69
2023/12/09 04:54:32;;;;;;;57.67;28.08;;;;;;;;;;5122542;28;20031;-69
2023/12/09 04:56:58;;;;;;;60.13;27.10;;;1.50;99.90;;;;;;5122605;28;20019;-69
2023/12/09 04:59:24;;;;;;;44.67;22.85;;;1.30;99.90;;;;;;5122603;28;20356;-70
2023/12/09 05:01:50;;;;;;;31.10;17.63;;;;;;;;;;5121063;28;20054;-69
2023/12/09 05:04:17;;;;;;;34.20;17.45;;;1.60;99.90;;;;;;5122305;28;20299;-69
2023/12/09 05:06:43;;;;;;;31.45;17.70;;;1.60;99.90;;;;;;5122488;28;20019;-70
2023/12/09 05:09:10;;;;;;;41.03;19.15;;;1.60;99.90;;;;;;5122565;27;20023;-70
2023/12/09 05:11:36;;;;;;;36.72;19.60;;;1.70;99.90;;;;;;5122519;28;20037;-70
2023/12/09 05:14:02;;;;;;;32.63;16.58;;;1.70;99.90;;;;;;5122115;28;20038;-70
2023/12/09 05:16:28;;;;;;;32.70;17.63;;;1.60;99.90;;;;;;5122246;28;20011;-70
2023/12/09 05:18:54;;;;;;;31.48;17.75;;;1.60;99.90;;;;;;5122149;28;20019;-70
2023/12/09 05:21:20;;;;;;;34.63;17.75;;;;;;;;;;5121982;28;20094;-70
2023/12/09 05:23:46;;;;;;;35.53;17.35;;;1.70;99.90;;;;;;5122281;28;20028;-70
2023/12/09 05:26:25;;;;;;;32.97;17.55;;;1.40;99.90;;;;;;5122041;28;20342;-70
2023/12/09 05:28:52;;;;;;;32.88;17.48;;;1.80;99.90;;;;;;5121973;28;20034;-70
2023/12/09 05:31:18;;;;;;;32.85;16.33;;;1.70;99.90;;;;;;5121900;28;20028;-70
2023/12/09 05:33:44;;;;;;;32.70;16.83;;;;;;;;;;5121734;28;20027;-70
2023/12/09 05:36:10;;;;;;;30.83;17.65;;;;;;;;;;5121807;28;20258;-70
2023/12/09 05:38:37;;;;;;;30.63;16.02;;;;;;;;;;5121776;28;20084;-69
2023/12/09 05:41:04;;;;;;;31.77;15.63;;;1.60;99.90;;;;;;5121798;28;20019;-69
2023/12/09 05:43:30;;;;;;;34.40;17.58;;;;;;;;;;5121802;28;20343;-69
2023/12/09 05:45:56;;;;;;;31.63;15.48;;;;;;;;;;5121518;28;20052;-69
2023/12/09 05:48:22;;;;;;;29.27;15.95;;;1.70;99.90;;;;;;5121608;28;20016;-70
2023/12/09 05:50:48;;;;;;;36.17;17.30;;;1.80;99.90;;;;;;5121728;28;20073;-69
2023/12/09 05:53:13;;;;;;;28.45;15.77;;;1.60;99.90;;;;;;5121483;28;20023;-69
2023/12/09 05:55:39;;;;;;;23.50;12.98;;;1.60;99.90;;;;;;5121599;28;20031;-69
2023/12/09 05:58:04;;;;;;;24.17;12.82;;;1.50;99.90;;;;;;5114769;28;20071;-70
2023/12/09 06:00:30;;;;;;;27.20;13.75;;;1.80;99.90;;;;;;5121583;28;20214;-70
2023/12/09 06:02:56;;;;;;;23.70;13.07;;;;;;;;;;5121211;28;20258;-71
2023/12/09 06:05:22;;;;;;;21.92;13.25;;;1.60;99.90;;;;;;5121056;28;20327;-71
2023/12/09 06:07:48;;;;;;;27.30;14.82;;;1.70;99.90;;;;;;5120647;28;20026;-71
2023/12/09 06:10:14;;;;;;;28.15;14.93;;;1.60;99.90;;;;;;5120838;28;20091;-71
2023/12/09 06:12:40;;;;;;;24.48;13.70;;;;;;;;;;5120725;28;20089;-71
2023/12/09 06:15:06;;;;;;;28.25;14.10;;;1.60;99.90;;;;;;5120870;28;20031;-70
2023/12/09 06:17:32;;;;;;;31.58;14.68;;;1.60;99.90;;;;;;5120476;28;20064;-70
2023/12/09 06:19:58;;;;;;;25.67;13.27;;;1.60;99.90;;;;;;5120588;28;20015;-70
2023/12/09 06:22:24;;;;;;;27.40;14.18;;;1.70;99.90;;;;;;5120119;28;20059;-70
2023/12/09 06:24:51;;;;;;;28.23;15.32;;;1.60;99.90;;;;;;5120429;28;20038;-71
2023/12/09 06:27:17;;;;;;;28.23;14.93;;;;;;;;;;5120542;28;20350;-71
2023/12/09 06:29:46;;;;;;;25.95;14.32;;;1.80;99.90;;;;;;5120583;28;20405;-70
2023/12/09 06:32:15;;;;;;;26.75;13.82;;;1.60;99.90;;;;;;5120895;28;20031;-70
2023/12/09 06:34:41;;;;;;;23.00;11.17;;;;;;;;;;5121299;28;20119;-70
2023/12/09 06:37:07;;;;;;;25.50;14.45;;;;;;;;;;5121026;28;20254;-70
2023/12/09 06:39:33;;;;;;;26.38;13.70;;;1.80;99.90;;;;;;5118168;28;20035;-70
2023/12/09 06:42:00;;;;;;;29.10;15.38;;;1.70;99.90;;;;;;5106553;28;20081;-70
2023/12/09 06:44:25;;;;;;;24.10;13.75;;;1.70;99.90;;;;;;5103021;28;20219;-70
2023/12/09 06:46:52;;;;;;;30.10;14.85;;;;;;;;;;5100706;28;20039;-70
2023/12/09 06:49:18;;;;;;;27.38;15.52;;;;;;;;;;5099502;28;20127;-70
2023/12/09 06:51:44;;;;;;;27.15;14.68;;;1.70;99.90;;;;;;5100636;28;20024;-71
2023/12/09 06:54:11;;;;;;;24.08;13.35;;;1.70;99.90;;;;;;5100755;28;20052;-70
2023/12/09 06:56:37;;;;;;;23.88;13.38;;;1.60;99.90;;;;;;5100618;28;20055;-70
2023/12/09 06:59:03;;;;;;;26.60;15.32;;;;;;;;;;5100200;28;20036;-70
2023/12/09 07:01:29;;;;;;;28.13;14.70;;;;;;;;;;5100660;28;20079;-70
2023/12/09 07:03:55;;;;;;;28.25;14.18;;;1.70;99.90;;;;;;5100606;28;20020;-70
2023/12/09 07:06:26;;;;;;;25.58;13.65;;;1.70;99.90;;;;;;5125307;28;20072;-70
2023/12/09 07:08:53;;;;;;;25.00;14.02;;;1.70;99.90;;;;;;5140250;28;20241;-71
2023/12/09 07:11:20;;;;;;;24.77;14.35;;;1.80;99.90;;;;;;5141713;27;20023;-71
2023/12/09 07:13:46;;;;;;;24.90;13.80;;;;;;;;;;5141535;27;20141;-71
2023/12/09 07:16:13;;;;;;;27.00;14.05;;;;;;;;;;5145175;27;20034;-70
2023/12/09 07:18:43;;;;;;;22.75;13.18;;;1.90;99.90;;;;;;5145362;27;20034;-68
2023/12/09 07:21:09;;;;;;;26.77;13.38;;;1.50;99.90;;;;;;5132063;27;20340;-71
2023/12/09 07:23:35;;;;;;;19.83;11.18;;;;;;;;;;5124546;28;20019;-70
2023/12/09 07:26:01;;;;;;;27.27;13.32;;;2.00;99.90;;;;;;5123254;28;20031;-71
2023/12/09 07:28:29;;;;;;;24.95;12.40;;;;;;;;;;5124351;28;20212;-70
2023/12/09 07:30:55;;;;;;;16.35;10.25;;;2.10;99.90;;;;;;5124505;28;20019;-71
2023/12/09 07:33:21;;;;;;;20.98;11.70;;;;;;;;;;5124249;28;20020;-69
2023/12/09 07:35:47;;;;;;;18.60;11.02;;;1.90;99.90;;;;;;5124223;28;20113;-71
2023/12/09 07:38:13;;;;;;;18.13;10.95;;;;;;;;;;5104390;27;20024;-72
2023/12/09 07:40:39;;;;;;;17.38;11.02;;;;;;;;;;5103804;28;20028;-70
2023/12/09 07:43:06;;;;;;;16.38;9.30;;;2.00;99.90;;;;;;5103627;28;20042;-71
2023/12/09 07:45:32;;;;;;;18.23;11.00;;;2.20;99.90;;;;;;5122821;28;20026;-71
2023/12/09 07:47:58;;;;;;;16.05;10.63;;;;;;;;;;5117145;28;20019;-71
2023/12/09 07:50:24;;;;;;;16.00;10.02;;;;;;;;;;5114120;28;20359;-71
2023/12/09 07:52:50;;;;;;;14.43;8.90;;;2.30;99.90;;;;;;5103342;28;20367;-71
2023/12/09 07:55:16;;;;;;;16.15;10.27;;;2.60;99.90;;;;;;5103179;28;20058;-71
2023/12/09 07:57:41;;;;;;;14.57;9.05;;;2.20;99.90;;;;;;5104603;28;20078;-72
2023/12/09 08:00:08;;;;;;;15.43;9.40;;;;;;;;;;5113673;28;20055;-71
2023/12/09 08:02:34;;;;;;;16.52;9.93;;;2.70;99.90;;;;;;5103495;28;20032;-71
2023/12/09 08:05:00;;;;;;;16.25;10.45;;;;;;;;;;5103216;28;20028;-71
2023/12/09 08:07:25;;;;;;;15.95;9.48;;;2.60;99.90;;;;;;5103212;28;20054;-69
2023/12/09 08:09:51;;;;;;;19.98;10.43;;;2.40;99.90;;;;;;5103384;28;20020;-69
2023/12/09 08:12:17;;;;;;;18.25;9.57;;;2.90;99.90;;;;;;5103211;28;20197;-69
2023/12/09 08:14:43;;;;;;;16.13;9.25;;;2.70;99.90;;;;;;5103186;28;20028;-69
2023/12/09 08:17:09;;;;;;;15.90;9.25;;;;;;;;;;5102954;28;20020;-69
2023/12/09 08:19:35;;;;;;;15.95;9.35;;;;;;;;;;5114355;28;20031;-69
2023/12/09 08:22:02;;;;;;;16.65;9.68;;;;;;;;;;5102736;28;20047;-69
2023/12/09 08:24:28;;;;;;;13.23;8.73;;;;;;;;;;5102684;28;20173;-69
2023/12/09 08:26:54;;;;;;;18.15;11.20;;;;;;;;;;5110604;27;20027;-70
2023/12/09 08:29:21;;;;;;;15.35;10.05;;;3.90;99.90;;;;;;5143951;27;20027;-70
2023/12/09 08:31:49;;;;;;;14.57;9.13;;;3.80;99.90;;;;;;5143920;27;20027;-70
2023/12/09 08:34:18;;;;;;;17.58;10.55;;;3.80;96.90;;;;;;5143491;27;20385;-70
2023/12/09 08:36:44;;;;;;;17.83;9.77;;;3.60;99.90;;;;;;5143820;27;20015;-70
2023/12/09 08:39:10;;;;;;;16.90;9.82;;;;;;;;;;5143405;27;20102;-70
2023/12/09 08:41:37;;;;;;;15.23;8.90;;;3.70;99.90;;;;;;5143501;27;20082;-70
2023/12/09 08:44:03;;;;;;;15.80;8.80;;;3.40;99.90;;;;;;5143640;27;20021;-70
2023/12/09 08:46:30;;;;;;;15.88;9.30;;;;;;;;;;5143571;27;20030;-69
2023/12/09 08:48:56;;;;;;;14.48;9.38;;;;;;;;;;5143586;27;20019;-69
2023/12/09 08:51:22;;;;;;;14.93;9.85;;;3.40;99.90;;;;;;5143183;27;20088;-70
2023/12/09 08:53:48;;;;;;;13.45;9.32;;;;;;;;;;5136676;27;20024;-70
2023/12/09 08:56:14;;;;;;;14.52;9.05;;;3.20;99.90;;;;;;5109538;28;20223;-69
2023/12/09 08:58:39;;;;;;;17.88;10.50;;;3.30;98.30;;;;;;5108929;28;20016;-70
2023/12/09 09:01:05;;;;;;;17.17;9.95;;;3.30;99.90;;;;;;5114852;28;20032;-70
2023/12/09 09:03:31;;;;;;;22.05;12.32;;;;;;;;;;5122426;28;20332;-71
2023/12/09 09:05:57;;;;;;;19.70;11.93;;;3.40;99.90;;;;;;5121903;28;20020;-71
2023/12/09 09:08:23;;;;;;;21.77;12.10;;;;;;;;;;5118655;28;20051;-70
2023/12/09 09:10:49;;;;;;;22.27;12.68;;;3.60;99.90;;;;;;5100272;28;20093;-70
2023/12/09 09:13:15;;;;;;;22.75;13.38;;;3.40;99.90;;;;;;5099287;28;20347;-70
2023/12/09 09:15:42;;;;;;;21.83;13.43;;;;;;;;;;5100744;28;20498;-70
2023/12/09 09:18:07;;;;;;;23.55;13.23;;;3.30;99.00;;;;;;5100146;28;20030;-70
2023/12/09 09:20:33;;;;;;;23.75;14.40;;;3.20;99.90;;;;;;5100128;28;20024;-70
2023/12/09 09:22:59;;;;;;;30.90;16.63;;;3.00;99.90;;;;;;5100638;28;20044;-71
2023/12/09 09:25:25;;;;;;;28.85;16.90;;;;;;;;;;5101635;28;20095;-71
2023/12/09 09:27:51;;;;;;;27.88;15.05;;;;;;;;;;5100374;28;20024;-71
2023/12/09 09:30:20;;;;;;;30.73;17.30;;;3.20;99.90;;;;;;5100195;28;20354;-70
2023/12/09 09:32:46;;;;;;;24.08;13.70;;;3.60;99.90;;;;;;5101381;28;20028;-70
2023/12/09 09:35:12;;;;;;;31.58;16.90;;;3.40;99.90;;;;;;5101368;28;20046;-70
2023/12/09 09:37:38;;;;;;;27.90;15.88;;;3.30;99.90;;;;;;5123171;27;20210;-70
2023/12/09 09:40:04;;;;;;;34.88;18.23;;;3.20;99.90;;;;;;5142488;27;20191;-70
2023/12/09 09:42:33;;;;;;;31.10;16.95;;;3.40;97.10;;;;;;5142355;27;20395;-70
2023/12/09 09:45:17;;;;;;;32.70;18.40;;;3.50;99.90;;;;;;5142432;27;20034;-70
2023/12/09 09:47:42;;;;;;;30.00;18.15;;;3.40;98.70;;;;;;5141903;27;20027;-70
2023/12/09 09:50:10;;;;;;;31.35;17.42;;;3.50;99.90;;;;;;5141911;27;20054;-71
2023/12/09 09:52:37;;;;;;;33.03;17.60;;;3.60;96.50;;;;;;5141890;27;20031;-71
2023/12/09 09:55:06;;;;;;;32.13;17.70;;;3.50;96.70;;;;;;5141891;27;20039;-71
2023/12/09 09:57:32;;;;;;;33.33;18.95;;;3.70;99.90;;;;;;5141802;27;20219;-71
2023/12/09 09:59:59;;;;;;;35.05;19.35;;;3.70;99.90;;;;;;5142121;27;20322;-71
2023/12/09 10:02:26;;;;;;;37.20;20.98;;;3.70;99.90;;;;;;5142167;27;20043;-71
2023/12/09 10:04:52;;;;;;;32.60;18.88;;;3.80;99.90;;;;;;5142273;27;20094;-71
2023/12/09 10:07:21;;;;;;;34.97;20.00;;;4.00;97.10;;;;;;5142056;27;20047;-71
2023/12/09 10:09:47;;;;;;;38.40;21.02;;;3.80;99.90;;;;;;5142108;27;20042;-70
2023/12/09 10:12:13;;;;;;;38.80;20.90;;;;;;;;;;5141905;27;20031;-71
2023/12/09 10:14:38;;;;;;;37.55;21.25;;;4.20;99.90;;;;;;5141777;28;20035;-71
2023/12/09 10:17:05;;;;;;;38.60;20.38;;;4.20;99.90;;;;;;5141815;27;20019;-70
2023/12/09 10:19:34;;;;;;;37.63;20.85;;;4.30;99.90;;;;;;5141891;27;20311;-70
2023/12/09 10:22:00;;;;;;;36.45;19.95;;;;;;;;;;5141706;27;20035;-71
2023/12/09 10:24:26;;;;;;;37.20;20.73;;;4.20;99.90;;;;;;5141799;28;20098;-71
2023/12/09 10:26:52;;;;;;;35.85;20.88;;;;;;;;;;5141654;27;20027;-71
2023/12/09 10:29:18;;;;;;;36.88;20.73;;;;;;;;;;5141813;28;20053;-71
2023/12/09 10:31:44;;;;;;;34.58;19.67;;;;;;;;;;5141837;28;20462;-71
2023/12/09 10:34:14;;;;;;;38.20;20.98;;;4.10;99.90;;;;;;5141703;27;20035;-71
2023/12/09 10:36:40;;;;;;;35.45;20.25;;;;;;;;;;5141615;27;20030;-71
2023/12/09 10:39:08;;;;;;;35.95;21.42;;;4.00;99.90;;;;;;5141433;27;20022;-72
2023/12/09 10:41:34;;;;;;;34.72;18.88;;;3.60;99.90;;;;;;5141462;27;20280;-69
2023/12/09 10:44:01;;;;;;;36.38;20.40;;;3.70;99.90;;;;;;5141691;27;20015;-69
2023/12/09 10:46:26;;;;;;;35.97;21.00;;;3.90;99.00;;;;;;5141656;27;20031;-71
2023/12/09 10:48:52;;;;;;;41.92;22.42;;;;;;;;;;5144755;27;20053;-71
2023/12/09 10:51:19;;;;;;;40.60;22.75;;;;;;;;;;5145172;27;20046;-72
2023/12/09 10:53:44;;;;;;;40.45;21.98;;;4.30;99.90;;;;;;5145183;27;20053;-69
2023/12/09 10:56:10;;;;;;;37.42;22.40;;;3.80;99.90;;;;;;5127880;27;20020;-69
2023/12/09 10:58:37;;;;;;;37.85;23.25;;;3.70;94.90;;;;;;5118019;28;20227;-71
2023/12/09 11:01:03;;;;;;;36.83;20.48;;;3.50;95.20;;;;;;5124859;28;20032;-72
2023/12/09 11:03:31;;;;;;;39.70;21.67;;;3.70;95.00;;;;;;5124620;28;20024;-71
2023/12/09 11:05:59;;;;;;;40.50;23.25;;;3.70;94.90;;;;;;5124783;27;20096;-71
2023/12/09 11:08:28;;;;;;;39.78;22.75;;;3.70;94.80;;;;;;5124429;28;20072;-71
2023/12/09 11:10:57;;;;;;;43.55;22.90;;;3.70;94.90;;;;;;5124603;28;20031;-70
2023/12/09 11:13:29;;;;;;;43.03;22.83;;;3.70;99.90;;;;;;5123277;28;20272;-70
2023/12/09 11:16:14;;;;;;;45.03;23.20;;;3.50;95.90;;;;;;5124461;28;20031;-72
2023/12/09 11:18:50;;;;;;;48.80;25.52;;;3.60;97.60;;;;;;5124349;28;20027;-69
2023/12/09 11:21:17;;;;;;;41.58;23.77;;;3.40;99.90;;;;;;5124132;28;20012;-72
2023/12/09 11:23:56;;;;;;;42.90;22.98;;;3.50;94.50;;;;;;5124472;28;20028;-71
2023/12/09 11:26:28;;;;;;;43.10;23.40;;;3.70;99.90;;;;;;5124559;28;20039;-71
2023/12/09 11:29:10;;;;;;;49.88;27.25;;;3.50;99.90;;;;;;5124123;28;20031;-71
2023/12/09 11:31:38;;;;;;;49.63;27.27;;;3.40;99.90;;;;;;5124269;28;20032;-71
2023/12/09 11:34:05;;;;;;;52.00;26.43;;;3.30;99.90;;;;;;5124186;28;20035;-72
2023/12/09 11:36:35;;;;;;;59.15;31.27;;;3.50;95.00;;;;;;5124239;28;20023;-71
2023/12/09 11:39:09;;;;;;;49.10;25.42;;;3.20;99.90;;;;;;5124267;28;20028;-71
2023/12/09 11:41:36;;;;;;;49.70;27.13;;;3.10;96.00;;;;;;5124229;28;20142;-71
2023/12/09 11:44:03;;;;;;;48.72;25.83;;;;;;;;;;5123968;28;20023;-71
2023/12/09 11:46:33;;;;;;;46.80;26.35;;;2.80;99.30;;;;;;5124133;28;20143;-71
2023/12/09 11:48:59;;;;;;;44.00;23.48;;;3.10;95.00;;;;;;5123818;28;20034;-71
2023/12/09 11:51:26;;;;;;;43.72;23.95;;;3.10;94.80;;;;;;5123976;28;20028;-71
2023/12/09 11:53:54;;;;;;;47.80;26.00;;;2.90;99.90;;;;;;5123736;28;20026;-70
2023/12/09 11:56:20;;;;;;;47.50;26.40;;;;;;;;;;5123863;28;20034;-71
2023/12/09 11:58:46;;;;;;;45.42;24.13;;;3.60;99.30;;;;;;5123271;28;20031;-71
2023/12/09 12:01:11;;;;;;;49.58;27.20;;;2.90;99.90;;;;;;5123581;28;20094;-71
2023/12/09 12:03:37;;;;;;;49.72;26.77;;;3.10;99.90;;;;;;5123606;28;20024;-71
2023/12/09 12:06:03;;;;;;;51.85;27.27;;;;;;;;;;5118494;28;20129;-71
2023/12/09 12:08:29;;;;;;;56.80;28.50;;;;;;;;;;5144069;27;20030;-71
2023/12/09 12:10:55;;;;;;;51.38;26.40;;;;;;;;;;5144108;27;20050;-71
2023/12/09 12:13:21;;;;;;;58.55;28.23;;;;;;;;;;5144203;27;20126;-71
2023/12/09 12:15:48;;;;;;;47.60;25.88;;;2.80;99.90;;;;;;5144165;27;20030;-71
2023/12/09 12:18:14;;;;;;;48.30;26.10;;;3.10;99.90;;;;;;5144217;27;20023;-70
2023/12/09 12:20:40;;;;;;;42.33;23.40;;;;;;;;;;5143887;27;20035;-70
2023/12/09 12:23:06;;;;;;;42.60;24.42;;;;;;;;;;5143711;27;20104;-70
2023/12/09 12:25:31;;;;;;;40.47;22.45;;;3.00;99.90;;;;;;5144062;27;20054;-72
2023/12/09 12:27:57;;;;;;;36.78;21.58;;;;;;;;;;5143795;27;20068;-70
2023/12/09 12:30:24;;;;;;;44.58;23.92;;;;;;;;;;5143904;27;20030;-71
2023/12/09 12:32:54;;;;;;;46.88;23.17;;;3.10;95.20;;;;;;5143493;27;20330;-70
2023/12/09 12:35:20;;;;;;;44.83;24.58;;;;;;;;;;5143728;27;20039;-71
2023/12/09 12:37:47;;;;;;;42.22;23.88;;;3.10;95.00;;;;;;5143428;27;20159;-71
2023/12/09 12:40:13;;;;;;;45.33;25.38;;;;;;;;;;5143464;27;20027;-70
2023/12/09 12:42:39;;;;;;;44.35;23.88;;;3.20;99.90;;;;;;5142036;27;20019;-70
2023/12/09 12:45:23;;;;;;;47.42;25.38;;;3.00;95.40;;;;;;5141908;27;20031;-71
2023/12/09 12:47:49;;;;;;;47.40;23.85;;;2.90;99.90;;;;;;5143232;27;20026;-71
2023/12/09 12:50:16;;;;;;;43.92;23.08;;;2.90;95.70;;;;;;5143071;27;20016;-69
2023/12/09 12:52:42;;;;;;;43.22;23.10;;;2.90;95.70;;;;;;5143103;27;20025;-71
2023/12/09 12:55:08;;;;;;;41.78;22.30;;;2.80;99.90;;;;;;5143105;27;20051;-70
2023/12/09 12:57:34;;;;;;;45.88;24.05;;;2.80;99.90;;;;;;5143132;27;20011;-70
2023/12/09 13:00:03;;;;;;;45.83;24.70;;;;;;;;;;5142946;27;20023;-70
2023/12/09 13:02:32;;;;;;;48.90;25.95;;;2.70;99.90;;;;;;5142931;27;20011;-69
2023/12/09 13:04:58;;;;;;;50.22;27.23;;;2.70;99.90;;;;;;5142875;27;20023;-70
2023/12/09 13:07:24;;;;;;;49.35;26.77;;;;;;;;;;5142755;27;20045;-71
2023/12/09 13:09:50;;;;;;;59.38;29.23;;;;;;;;;;5142844;27;20015;-70
2023/12/09 13:12:16;;;;;;;58.35;30.35;;;2.60;99.90;;;;;;5141816;27;20030;-70
2023/12/09 13:14:41;;;;;;;65.10;31.65;;;2.60;99.90;;;;;;5142491;27;20094;-70
2023/12/09 13:17:09;;;;;;;64.10;32.65;;;2.50;97.10;;;;;;5142715;27;20023;-70
2023/12/09 13:19:35;;;;;;;61.10;29.33;;;2.50;99.60;;;;;;5142697;27;20038;-70
2023/12/09 13:22:00;;;;;;;61.78;32.58;;;2.30;99.90;;;;;;5142471;27;20043;-70
2023/12/09 13:24:26;;;;;;;61.72;32.75;;;2.00;99.90;;;;;;5142555;27;20338;-69